Time;durP1;ratioP1;P1;durP2;ratioP2;P2;SDS_P1;SDS_P2;PMS_P1;PMS_P2;Temp;Humidity;BMP_temperature;BMP_pressure;BME280_temperature;BME280_humidity;BME280_pressure;Samples;Min_cycle;Max_cycle;Signal;HPM_P1;HPM_P2
2022/04/04 00:00:10;;;;;;;;;;;-5.20;99.90;;;;;;5054241;28;20277;-70
2022/04/04 00:02:36;;;;;;;;;;;-5.20;99.90;;;;;;5052895;28;19934;-70
2022/04/04 00:05:03;;;;;;;;;;;-5.20;99.90;;;;;;5053808;28;19954;-70
2022/04/04 00:07:28;;;;;;;;;;;-5.20;99.90;;;;;;5054247;28;19935;-70
2022/04/04 00:09:54;;;;;;;;;;;-5.10;99.90;;;;;;5054129;28;19909;-70
2022/04/04 00:12:20;;;;;;;;;;;-4.90;99.90;;;;;;5053975;28;20289;-70
2022/04/04 00:14:46;;;;;;;;;;;-4.90;99.90;;;;;;5053750;28;20254;-70
2022/04/04 00:17:12;;;;;;;;;;;-5.00;99.90;;;;;;5053978;28;19966;-70
2022/04/04 00:19:37;;;;;;;;;;;-5.20;99.90;;;;;;5053956;28;19915;-70
2022/04/04 00:22:03;;;;;;;;;;;-5.40;99.90;;;;;;5053694;28;19917;-70
2022/04/04 00:24:29;;;;;;;;;;;-5.50;99.90;;;;;;5053654;28;19948;-70
2022/04/04 00:26:54;;;;;;;;;;;-5.50;99.90;;;;;;5053834;28;19962;-70
2022/04/04 00:29:20;;;;;;;;;;;-5.50;99.90;;;;;;5053529;28;20267;-70
2022/04/04 00:31:45;;;;;;;;;;;-5.60;99.90;;;;;;5053435;28;19984;-70
2022/04/04 00:34:11;;;;;;;;;;;-5.60;99.90;;;;;;5049753;28;20480;-70
2022/04/04 00:36:36;;;;;;;;;;;-5.60;99.90;;;;;;5052554;28;20297;-70
2022/04/04 00:39:02;;;;;;;;;;;-5.70;99.90;;;;;;5053540;28;20289;-70
2022/04/04 00:41:27;;;;;;;;;;;-5.80;99.90;;;;;;5053167;28;19913;-70
2022/04/04 00:43:53;;;;;;;;;;;-5.80;99.90;;;;;;5053061;28;19916;-70
2022/04/04 00:46:19;;;;;;;;;;;-5.80;99.90;;;;;;5053688;28;19913;-70
2022/04/04 00:48:44;;;;;;;;;;;-5.80;99.90;;;;;;5053875;28;19912;-70
2022/04/04 00:51:10;;;;;;;;;;;-5.80;99.90;;;;;;5046797;28;19913;-70
2022/04/04 00:53:36;;;;;;;;;;;-5.80;99.90;;;;;;5052773;28;19916;-70
2022/04/04 00:56:01;;;;;;;;;;;-5.70;99.90;;;;;;5053182;28;19908;-70
2022/04/04 00:58:28;;;;;;;;;;;-5.80;99.90;;;;;;5053743;28;20503;-70
2022/04/04 01:00:53;;;;;;;;;;;-5.80;99.90;;;;;;5053222;28;19917;-70
2022/04/04 01:03:19;;;;;;;;;;;-5.80;99.90;;;;;;5046315;28;19909;-70
2022/04/04 01:05:44;;;;;;;;;;;-5.90;99.90;;;;;;5053083;28;19908;-70
2022/04/04 01:08:13;;;;;;;;;;;-5.90;99.90;;;;;;5053063;28;19913;-70
2022/04/04 01:10:40;;;;;;;;;;;-5.80;99.90;;;;;;5052841;28;19916;-70
2022/04/04 01:13:05;;;;;;;;;;;-5.80;99.90;;;;;;5052724;28;19913;-70
2022/04/04 01:15:32;;;;;;;;;;;-5.80;99.90;;;;;;5052943;28;20273;-70
2022/04/04 01:17:58;;;;;;;;;;;-5.80;99.90;;;;;;5052747;28;20011;-70
2022/04/04 01:20:24;;;;;;;;;;;-5.90;99.90;;;;;;5052660;28;19913;-70
2022/04/04 01:22:50;;;;;;;;;;;-5.90;99.90;;;;;;5052606;28;19920;-70
2022/04/04 01:25:21;;;;;;;;;;;-5.90;99.90;;;;;;5052852;28;19909;-70
2022/04/04 01:27:46;;;;;;;;;;;-6.00;99.90;;;;;;5052605;28;19909;-70
2022/04/04 01:30:13;;;;;;;;;;;-6.10;99.90;;;;;;5052605;28;20366;-70
2022/04/04 01:32:38;;;;;;;;;;;-6.10;99.90;;;;;;5050815;28;19915;-70
2022/04/04 01:35:05;;;;;;;;;;;-6.10;99.90;;;;;;5058114;28;19909;-70
2022/04/04 01:37:31;;;;;;;;;;;-6.00;99.90;;;;;;5052456;28;19912;-70
2022/04/04 01:39:56;;;;;;;;;;;-6.00;99.90;;;;;;5052136;28;20396;-70
2022/04/04 01:42:22;;;;;;;;;;;-5.90;99.90;;;;;;5052386;28;20003;-70
2022/04/04 01:44:47;;;;;;;;;;;-6.00;99.90;;;;;;5051999;28;19909;-70
2022/04/04 01:47:13;;;;;;;;;;;-6.10;99.90;;;;;;5052376;28;20366;-70
2022/04/04 01:49:39;;;;;;;;;;;-6.10;99.90;;;;;;5052239;28;20318;-70
2022/04/04 01:52:04;;;;;;;;;;;-6.00;99.90;;;;;;5052261;28;19909;-70
2022/04/04 01:54:30;;;;;;;;;;;-6.10;99.90;;;;;;5051736;28;19935;-70
2022/04/04 01:56:55;;;;;;;;;;;-6.30;99.90;;;;;;5049050;28;20003;-70
2022/04/04 01:59:21;;;;;;;;;;;-6.40;99.90;;;;;;5051835;28;19908;-70
2022/04/04 02:01:46;;;;;;;;;;;-6.20;99.90;;;;;;5051811;28;20155;-70
2022/04/04 02:04:12;;;;;;;;;;;-6.10;99.90;;;;;;5051892;28;19916;-70
2022/04/04 02:06:37;;;;;;;;;;;-6.10;99.90;;;;;;5052115;28;19909;-70
2022/04/04 02:09:03;;;;;;;;;;;-6.10;99.90;;;;;;5051923;28;19912;-70
2022/04/04 02:11:29;;;;;;;;;;;-6.10;99.90;;;;;;5051868;28;19909;-70
2022/04/04 02:13:55;;;;;;;;;;;-6.00;99.90;;;;;;5050684;28;19998;-70
2022/04/04 02:16:20;;;;;;;;;;;-6.00;99.90;;;;;;5051938;28;20294;-70
2022/04/04 02:18:46;;;;;;;;;;;-6.10;99.90;;;;;;5045137;28;19917;-70
2022/04/04 02:21:11;;;;;;;;;;;-6.20;99.90;;;;;;5051561;28;19939;-70
2022/04/04 02:23:37;;;;;;;;;;;-6.10;99.90;;;;;;5046020;28;19916;-70
2022/04/04 02:26:03;;;;;;;;;;;-6.20;99.90;;;;;;5052669;28;19960;-70
2022/04/04 02:28:29;;;;;;;;;;;-6.10;99.90;;;;;;5052111;28;19948;-70
2022/04/04 02:30:55;;;;;;;;;;;-6.10;99.90;;;;;;5048860;28;19915;-70
2022/04/04 02:33:21;;;;;;;;;;;-6.20;99.90;;;;;;5051033;28;19916;-70
2022/04/04 02:35:47;;;;;;;;;;;-6.20;99.90;;;;;;5051316;28;19944;-70
2022/04/04 02:38:13;;;;;;;;;;;-6.20;99.90;;;;;;5051533;28;19909;-70
2022/04/04 02:40:40;;;;;;;;;;;-6.20;99.90;;;;;;5051332;28;19998;-70
2022/04/04 02:43:06;;;;;;;;;;;-6.20;99.90;;;;;;5051018;28;20392;-70
2022/04/04 02:45:32;;;;;;;;;;;-6.20;99.90;;;;;;5049910;28;19909;-70
2022/04/04 02:47:58;;;;;;;;;;;-6.30;99.90;;;;;;5051212;28;19919;-70
2022/04/04 02:50:23;;;;;;;;;;;-6.40;99.90;;;;;;5051373;28;19913;-70
2022/04/04 02:52:48;;;;;;;;;;;-6.40;99.90;;;;;;5049667;28;19983;-70
2022/04/04 02:57:58;;;;;;;;;;;-6.40;99.90;;;;;;5051099;28;19966;-70
2022/04/04 03:00:24;;;;;;;;;;;-6.40;99.90;;;;;;5051120;28;19916;-70
2022/04/04 03:02:50;;;;;;;;;;;-6.50;99.90;;;;;;5050817;28;19928;-70
2022/04/04 03:05:16;;;;;;;;;;;-6.40;99.90;;;;;;5050577;28;19913;-70
2022/04/04 03:07:42;;;;;;;;;;;-6.40;99.90;;;;;;5051017;28;19909;-70
2022/04/04 03:10:08;;;;;;;;;;;-6.50;99.90;;;;;;5050889;28;19999;-69
2022/04/04 03:12:38;;;;;;;;;;;-6.50;99.90;;;;;;5051287;28;20015;-70
2022/04/04 03:15:04;;;;;;;;;;;-6.60;99.90;;;;;;5050804;28;20281;-69
2022/04/04 03:17:30;;;;;;;;;;;-6.60;99.90;;;;;;5050902;28;19921;-69
2022/04/04 03:19:55;;;;;;;;;;;-6.50;99.90;;;;;;5050697;28;19924;-69
2022/04/04 03:22:21;;;;;;;;;;;-6.40;99.90;;;;;;5050700;28;20086;-69
2022/04/04 03:24:46;;;;;;;;;;;-6.40;99.90;;;;;;5051069;28;19915;-70
2022/04/04 03:27:13;;;;;;;;;;;-6.50;99.90;;;;;;5055196;28;19955;-70
2022/04/04 03:29:39;;;;;;;;;;;-6.50;99.90;;;;;;5054883;28;20054;-70
2022/04/04 03:32:05;;;;;;;;;;;-6.40;99.90;;;;;;5054967;28;20000;-70
2022/04/04 03:34:31;;;;;;;;;;;-6.50;99.90;;;;;;5054404;28;20238;-70
2022/04/04 03:36:56;;;;;;;;;;;-6.50;99.90;;;;;;5054858;28;19955;-69
2022/04/04 03:39:23;;;;;;;;;;;-6.40;99.90;;;;;;5054904;28;20362;-70
2022/04/04 03:41:49;;;;;;;;;;;-6.50;99.90;;;;;;5047780;28;19917;-69
2022/04/04 03:44:14;;;;;;;;;;;-6.60;99.90;;;;;;5054457;28;19931;-70
2022/04/04 03:46:40;;;;;;;;;;;-6.60;99.90;;;;;;5054745;28;19967;-69
2022/04/04 03:49:06;;;;;;;;;;;-6.60;99.90;;;;;;5054622;28;20384;-70
2022/04/04 03:51:31;;;;;;;;;;;-6.60;99.90;;;;;;5054381;28;20358;-70
2022/04/04 03:53:57;;;;;;;;;;;-6.70;99.90;;;;;;5052886;28;19909;-69
2022/04/04 03:56:22;;;;;;;;;;;-6.70;99.90;;;;;;5053545;28;19915;-70
2022/04/04 03:58:49;;;;;;;;;;;-6.70;99.90;;;;;;5054114;28;19917;-70
2022/04/04 04:01:15;;;;;;;;;;;-6.80;99.90;;;;;;5056372;28;19913;-69
2022/04/04 04:03:40;;;;;;;;;;;-6.80;99.90;;;;;;5055246;28;20369;-69
2022/04/04 04:06:12;;;;;;;;;;;-6.80;99.90;;;;;;5054319;28;19954;-69
2022/04/04 04:08:41;;;;;;;;;;;-6.90;99.90;;;;;;5054564;28;19909;-70
2022/04/04 04:11:07;;;;;;;;;;;-7.00;99.90;;;;;;5054281;28;20051;-69
2022/04/04 04:13:32;;;;;;;;;;;-7.00;99.90;;;;;;5054181;28;19941;-70
2022/04/04 04:15:58;;;;;;;;;;;-7.00;99.90;;;;;;5054138;28;20319;-70
2022/04/04 04:18:24;;;;;;;;;;;-6.90;99.90;;;;;;5054124;28;20377;-69
2022/04/04 04:20:50;;;;;;;;;;;-7.00;99.90;;;;;;5054188;28;19912;-69
2022/04/04 04:23:16;;;;;;;;;;;-7.00;99.90;;;;;;5053805;28;19909;-69
2022/04/04 04:25:42;;;;;;;;;;;-7.00;99.90;;;;;;5052946;28;19909;-69
2022/04/04 04:28:09;;;;;;;;;;;-7.00;99.90;;;;;;5052758;28;20019;-69
2022/04/04 04:30:34;;;;;;;;;;;-7.00;99.90;;;;;;5047492;28;19913;-69
2022/04/04 04:33:00;;;;;;;;;;;-7.00;99.90;;;;;;5053763;28;20324;-69
2022/04/04 04:35:26;;;;;;;;;;;-6.90;99.90;;;;;;5053627;28;19959;-70
2022/04/04 04:37:52;;;;;;;;;;;-6.90;99.90;;;;;;5053042;28;19909;-70
2022/04/04 04:40:17;;;;;;;;;;;-7.00;99.90;;;;;;5053480;28;19936;-69
2022/04/04 04:42:44;;;;;;;;;;;-7.20;99.90;;;;;;5053296;28;20396;-69
2022/04/04 04:45:10;;;;;;;;;;;-7.20;99.90;;;;;;5053395;28;19913;-69
2022/04/04 04:47:36;;;;;;;;;;;-7.00;99.90;;;;;;5053408;28;19909;-69
2022/04/04 04:50:02;;;;;;;;;;;-6.90;99.90;;;;;;5053310;28;20381;-69
2022/04/04 04:52:28;;;;;;;;;;;-6.90;99.90;;;;;;5053577;28;19916;-70
2022/04/04 04:54:54;;;;;;;;;;;-6.90;99.90;;;;;;5053628;28;19909;-69
2022/04/04 04:57:20;;;;;;;;;;;-6.80;99.90;;;;;;5055241;28;19934;-69
2022/04/04 04:59:45;;;;;;;;;;;-6.70;99.90;;;;;;5053290;28;20278;-69
2022/04/04 05:02:11;;;;;;;;;;;-6.80;99.90;;;;;;5052844;28;20011;-69
2022/04/04 05:04:37;;;;;;;;;;;-6.80;99.90;;;;;;5052823;28;19962;-69
2022/04/04 05:07:02;;;;;;;;;;;-6.80;99.90;;;;;;5053329;28;19915;-70
2022/04/04 05:09:28;;;;;;;;;;;-6.80;99.90;;;;;;5052887;28;19915;-69
2022/04/04 05:11:53;;;;;;;;;;;-6.70;99.90;;;;;;5052658;28;19913;-70
2022/04/04 05:14:19;;;;;;;;;;;-6.70;99.90;;;;;;5053000;28;20016;-69
2022/04/04 05:16:45;;;;;;;;;;;-6.70;99.90;;;;;;5052736;28;19909;-69
2022/04/04 05:19:12;;;;;;;;;;;-6.60;99.90;;;;;;5052988;28;19923;-68
2022/04/04 05:21:38;;;;;;;;;;;-6.70;99.90;;;;;;5049737;28;19963;-69
2022/04/04 05:24:07;;;;;;;;;;;-6.70;99.90;;;;;;5052131;28;19909;-68
2022/04/04 05:26:33;;;;;;;;;;;-6.60;99.90;;;;;;5056870;28;19916;-69
2022/04/04 05:28:59;;;;;;;;;;;-6.60;99.90;;;;;;5052694;28;20281;-69
2022/04/04 05:31:24;;;;;;;;;;;-6.50;99.90;;;;;;5052065;28;20266;-69
2022/04/04 05:33:50;;;;;;;;;;;-6.40;99.90;;;;;;5052491;28;19913;-69
2022/04/04 05:36:16;;;;;;;;;;;-6.30;99.90;;;;;;5052575;28;19908;-70
2022/04/04 05:38:41;;;;;;;;;;;-6.20;99.90;;;;;;5052711;28;20388;-69
2022/04/04 05:41:07;;;;;;;;;;;-6.20;99.90;;;;;;5052461;28;19916;-70
2022/04/04 05:43:32;;;;;;;;;;;-6.10;99.90;;;;;;5052287;28;19954;-70
2022/04/04 05:45:58;;;;;;;;;;;-6.10;99.90;;;;;;5052421;28;19917;-69
2022/04/04 05:48:27;;;;;;;;;;;-6.00;99.90;;;;;;5050383;28;19913;-71
2022/04/04 05:50:53;;;;;;;;;;;-6.00;99.90;;;;;;5052084;28;20296;-71
2022/04/04 05:53:19;;;;;;;;;;;-5.90;99.90;;;;;;5049249;28;20320;-71
2022/04/04 05:55:45;;;;;;;;;;;-5.80;99.90;;;;;;5052072;28;19955;-71
2022/04/04 05:58:10;;;;;;;;;;;-5.70;99.90;;;;;;5046039;28;19954;-71
2022/04/04 06:00:36;;;;;;;;;;;-5.60;99.90;;;;;;5052625;28;19916;-71
2022/04/04 06:03:02;;;;;;;;;;;-5.50;99.90;;;;;;5051740;28;19978;-71
2022/04/04 06:05:27;;;;;;;;;;;-5.40;99.90;;;;;;5047681;28;19916;-71
2022/04/04 06:07:53;;;;;;;;;;;-5.40;99.90;;;;;;5050701;28;19913;-71
2022/04/04 06:10:18;;;;;;;;;;;-5.40;99.90;;;;;;5052806;28;19909;-73
2022/04/04 06:12:44;;;;;;;;;;;-5.30;99.90;;;;;;5051873;28;19931;-71
2022/04/04 06:15:15;;;;;;;;;;;-5.20;99.90;;;;;;5051618;28;19962;-71
2022/04/04 06:17:41;;;;;;;;;;;-5.10;99.90;;;;;;5051587;28;19920;-71
2022/04/04 06:20:08;;;;;;;;;;;-4.80;99.90;;;;;;5051569;28;19916;-71
2022/04/04 06:22:37;;;;;;;;;;;-4.70;99.90;;;;;;5051853;28;19935;-71
2022/04/04 06:25:04;;;;;;;;;;;-4.60;99.90;;;;;;5051508;28;19909;-71
2022/04/04 06:27:30;;;;;;;;;;;-4.50;99.90;;;;;;5051507;28;20111;-71
2022/04/04 06:29:56;;;;;;;;;;;-4.30;99.90;;;;;;5051450;28;19963;-71
2022/04/04 06:32:24;;;;;;;;;;;-4.20;99.90;;;;;;5041943;28;19950;-71
2022/04/04 06:34:49;;;;;;;;;;;-4.10;99.90;;;;;;5049636;28;19912;-71
2022/04/04 06:37:15;;;;;;;;;;;-4.00;99.90;;;;;;5042528;28;20258;-71
2022/04/04 06:39:40;;;;;;;;;;;-3.80;99.90;;;;;;5050697;28;19951;-71
2022/04/04 06:42:06;;;;;;;;;;;-3.70;99.90;;;;;;5048535;28;20027;-71
2022/04/04 06:44:32;;;;;;;;;;;-3.60;99.90;;;;;;5047654;28;19931;-71
2022/04/04 06:46:57;;;;;;;;;;;-3.50;99.90;;;;;;5050135;28;20281;-71
2022/04/04 06:49:23;;;;;;;;;;;-3.30;99.90;;;;;;5050132;28;20336;-71
2022/04/04 06:51:51;;;;;;;;;;;-3.10;99.90;;;;;;5050090;28;19963;-71
2022/04/04 06:54:18;;;;;;;;;;;-3.00;99.90;;;;;;5050707;28;19915;-71
2022/04/04 06:56:49;;;;;;;;;;;-2.80;99.90;;;;;;5042866;28;19909;-71
2022/04/04 06:59:16;;;;;;;;;;;-2.70;99.90;;;;;;5050701;28;19999;-71
2022/04/04 07:01:42;;;;;;;;;;;-2.60;99.90;;;;;;5052085;28;19927;-71
2022/04/04 07:04:09;;;;;;;;;;;-2.50;99.90;;;;;;5054411;28;19913;-71
2022/04/04 07:06:35;;;;;;;;;;;-2.40;99.90;;;;;;5054097;28;19916;-71
2022/04/04 07:09:01;;;;;;;;;;;-2.30;99.90;;;;;;5061316;28;20007;-71
2022/04/04 07:11:27;;;;;;;;;;;-2.10;99.90;;;;;;5051478;28;19962;-71
2022/04/04 07:13:53;;;;;;;;;;;-2.00;99.90;;;;;;5054725;28;20505;-71
2022/04/04 07:16:18;;;;;;;;;;;-1.90;99.90;;;;;;5054652;28;19913;-72
2022/04/04 07:18:44;;;;;;;;;;;-1.80;99.90;;;;;;5054770;28;19924;-71
2022/04/04 07:21:09;;;;;;;;;;;-1.50;99.90;;;;;;5052446;28;20428;-71
2022/04/04 07:23:35;;;;;;;;;;;-1.40;99.90;;;;;;5057716;28;20323;-71
2022/04/04 07:26:00;;;;;;;;;;;-1.30;99.90;;;;;;5054297;28;19909;-72
2022/04/04 07:28:26;;;;;;;;;;;-1.10;99.90;;;;;;5054316;28;19999;-72
2022/04/04 07:30:53;;;;;;;;;;;-0.80;99.90;;;;;;5054051;28;20288;-72
2022/04/04 07:33:19;;;;;;;;;;;-0.60;99.90;;;;;;5050456;28;19909;-72
2022/04/04 07:35:45;;;;;;;;;;;-0.30;99.90;;;;;;5060534;28;20270;-71
2022/04/04 07:38:11;;;;;;;;;;;0.20;99.90;;;;;;5053565;28;19912;-72
2022/04/04 07:40:37;;;;;;;;;;;2.30;99.90;;;;;;5052552;28;20003;-71
2022/04/04 07:43:03;;;;;;;;;;;3.60;99.60;;;;;;5051606;28;19956;-71
2022/04/04 07:45:30;;;;;;;;;;;4.40;97.00;;;;;;5046031;28;19935;-71
2022/04/04 07:47:55;;;;;;;;;;;4.70;94.50;;;;;;5054116;28;19909;-72
2022/04/04 07:50:21;;;;;;;;;;;4.80;94.30;;;;;;5054081;28;19913;-72
2022/04/04 07:52:47;;;;;;;;;;;5.10;93.30;;;;;;5053540;28;19908;-72
2022/04/04 07:55:13;;;;;;;;;;;5.00;92.60;;;;;;5054055;28;19916;-72
2022/04/04 07:57:38;;;;;;;;;;;5.50;91.60;;;;;;5053907;28;20382;-72
2022/04/04 08:00:04;;;;;;;;;;;5.80;91.20;;;;;;5053746;28;19939;-73
2022/04/04 08:02:30;;;;;;;;;;;6.30;90.10;;;;;;5049257;28;19917;-73
2022/04/04 08:04:56;;;;;;;;;;;6.90;87.80;;;;;;5056236;28;19916;-73
2022/04/04 08:07:22;;;;;;;;;;;6.90;86.50;;;;;;5054956;28;20294;-74
2022/04/04 08:09:48;;;;;;;;;;;7.30;85.60;;;;;;5053741;28;19995;-72
2022/04/04 08:12:13;;;;;;;;;;;7.10;84.10;;;;;;5052545;28;20008;-72
2022/04/04 08:14:39;;;;;;;;;;;7.20;83.40;;;;;;5051225;28;19913;-73
2022/04/04 08:17:05;;;;;;;;;;;6.90;83.00;;;;;;5048450;28;19917;-73
2022/04/04 08:19:32;;;;;;;;;;;6.90;81.90;;;;;;5056120;28;19972;-74
2022/04/04 08:21:57;;;;;;;;;;;8.20;81.90;;;;;;5051700;28;19960;-73
2022/04/04 08:24:23;;;;;;;;;;;7.80;79.80;;;;;;5055322;28;20356;-73
2022/04/04 08:26:49;;;;;;;;;;;8.30;78.60;;;;;;5053543;28;19916;-73
2022/04/04 08:29:15;;;;;;;;;;;7.70;78.10;;;;;;5053766;28;19909;-73
2022/04/04 08:31:40;;;;;;;;;;;7.80;78.80;;;;;;5053004;28;19919;-73
2022/04/04 08:34:06;;;;;;;;;;;8.20;77.60;;;;;;5053238;28;19912;-74
2022/04/04 08:36:31;;;;;;;;;;;8.40;78.00;;;;;;5053047;28;19934;-74
2022/04/04 08:38:57;;;;;;;;;;;9.00;78.10;;;;;;5051497;28;20293;-73
2022/04/04 08:41:23;;;;;;;;;;;9.20;76.50;;;;;;5054900;28;19918;-74
2022/04/04 08:43:51;;;;;;;;;;;8.40;73.70;;;;;;5048555;28;19913;-74
2022/04/04 08:46:17;;;;;;;;;;;9.10;76.40;;;;;;5041931;28;19944;-74
2022/04/04 08:48:43;;;;;;;;;;;9.50;73.70;;;;;;5053835;28;19997;-74
2022/04/04 08:51:10;;;;;;;;;;;8.70;73.90;;;;;;5052662;28;20287;-75
2022/04/04 08:53:37;;;;;;;;;;;9.20;75.00;;;;;;5052428;28;19935;-74
2022/04/04 08:56:04;;;;;;;;;;;9.40;74.30;;;;;;5053004;28;19909;-73
2022/04/04 08:58:30;;;;;;;;;;;9.80;72.50;;;;;;5052765;28;19916;-73
2022/04/04 09:00:55;;;;;;;;;;;10.30;70.70;;;;;;5046814;28;19920;-73
2022/04/04 09:03:22;;;;;;;;;;;9.70;71.90;;;;;;5061743;28;19908;-74
2022/04/04 09:05:51;;;;;;;;;;;10.50;70.50;;;;;;5052287;28;19909;-73
2022/04/04 09:08:18;;;;;;;;;;;9.70;71.10;;;;;;5052623;28;19912;-75
2022/04/04 09:10:44;;;;;;;;;;;9.60;73.40;;;;;;5052477;28;19909;-74
2022/04/04 09:13:10;;;;;;;;;;;10.40;69.60;;;;;;5051862;28;19909;-74
2022/04/04 09:15:58;;;;;;;;;;;10.60;68.80;;;;;;5052427;28;19919;-75
2022/04/04 09:18:36;;;;;;;;;;;10.20;71.00;;;;;;5051459;28;19920;-73
2022/04/04 09:21:03;;;;;;;;;;;10.00;67.80;;;;;;5047924;28;19917;-74
2022/04/04 09:23:33;;;;;;;;;;;10.70;67.60;;;;;;5049913;28;19976;-75
2022/04/04 09:26:00;;;;;;;;;;;10.00;67.60;;;;;;5052407;28;20278;-75
2022/04/04 09:28:26;;;;;;;;;;;10.00;65.70;;;;;;5052182;28;19916;-75
2022/04/04 09:31:06;;;;;;;;;;;11.60;66.30;;;;;;5051844;28;20361;-76
2022/04/04 09:33:36;;;;;;;;;;;12.50;59.50;;;;;;5045156;28;20038;-74
2022/04/04 09:36:02;;;;;;;;;;;12.60;59.30;;;;;;5052194;28;20385;-74
2022/04/04 09:38:27;;;;;;;;;;;12.80;58.40;;;;;;5052070;28;19912;-74
2022/04/04 09:40:53;;;;;;;;;;;11.50;61.60;;;;;;5048549;28;19917;-74
2022/04/04 09:43:19;;;;;;;;;;;11.50;62.50;;;;;;5051093;28;20014;-74
2022/04/04 09:45:46;;;;;;;;;;;12.60;62.40;;;;;;5049407;28;19944;-74
2022/04/04 09:48:12;;;;;;;;;;;13.50;59.30;;;;;;5057961;28;19909;-76
2022/04/04 09:50:47;;;;;;;;;;;13.80;58.30;;;;;;5051835;28;19912;-75
2022/04/04 09:53:20;;;;;;;;;;;14.30;55.70;;;;;;5046101;28;20304;-75
2022/04/04 09:55:55;;;;;;;;;;;12.80;57.80;;;;;;5050487;28;19948;-75
2022/04/04 09:58:22;;;;;;;;;;;13.40;57.70;;;;;;5051980;28;19919;-76
2022/04/04 10:00:50;;;;;;;;;;;14.80;54.90;;;;;;5046737;28;19913;-75
2022/04/04 10:03:16;;;;;;;;;;;13.20;53.30;;;;;;5053520;28;19908;-76
2022/04/04 10:06:02;;;;;;;;;;;12.90;59.70;;;;;;5051962;28;19912;-76
2022/04/04 10:08:28;;;;;;;;;;;14.50;58.20;;;;;;5042979;28;19919;-75
2022/04/04 10:10:54;;;;;;;;;;;14.60;54.60;;;;;;5051690;28;19913;-76
2022/04/04 10:13:19;;;;;;;;;;;13.40;55.10;;;;;;5051023;28;19979;-75
2022/04/04 10:15:45;;;;;;;;;;;13.60;56.10;;;;;;5052869;28;19908;-76
2022/04/04 10:18:11;;;;;;;;;;;13.30;55.50;;;;;;5053095;28;19922;-76
2022/04/04 10:20:37;;;;;;;;;;;11.40;58.00;;;;;;5048653;28;19944;-75
2022/04/04 10:23:04;;;;;;;;;;;12.10;57.20;;;;;;5052248;28;20042;-76
2022/04/04 10:25:31;;;;;;;;;;;14.70;56.60;;;;;;5050870;28;20365;-76
2022/04/04 10:27:57;;;;;;;;;;;14.20;57.00;;;;;;5051551;28;19972;-76
2022/04/04 10:30:32;;;;;;;;;;;15.80;54.20;;;;;;5051294;28;19908;-76
2022/04/04 10:32:57;;;;;;;;;;;12.80;54.90;;;;;;5051318;28;19909;-76
2022/04/04 10:35:27;;;;;;;;;;;13.10;58.00;;;;;;5049765;28;19908;-76
2022/04/04 10:37:56;;;;;;;;;;;13.50;54.50;;;;;;5048475;28;20282;-76
2022/04/04 10:40:25;;;;;;;;;;;14.00;54.10;;;;;;5047405;28;20277;-76
2022/04/04 10:43:09;;;;;;;;;;;12.90;54.80;;;;;;5052016;28;20370;-76
2022/04/04 10:45:53;;;;;;;;;;;10.60;57.30;;;;;;5044590;28;20361;-76
2022/04/04 10:48:20;;;;;;;;;;;12.00;54.90;;;;;;5050911;28;19909;-75
2022/04/04 10:50:46;;;;;;;;;;;13.30;55.10;;;;;;5050986;28;19913;-76
2022/04/04 10:53:11;;;;;;;;;;;14.00;53.50;;;;;;5050719;28;19970;-75
2022/04/04 10:55:37;;;;;;;;;;;15.20;52.60;;;;;;5042990;28;20400;-75
2022/04/04 10:58:13;;;;;;;;;;;14.50;53.90;;;;;;5054484;28;19908;-75
2022/04/04 11:00:58;;;;;;;;;;;15.10;51.60;;;;;;5054484;28;19916;-74
2022/04/04 11:03:27;;;;;;;;;;;15.40;51.40;;;;;;5052430;28;19935;-75
2022/04/04 11:09:00;;;;;;;;;;;14.80;53.40;;;;;;5053016;28;19963;-74
2022/04/04 11:11:44;;;;;;;;;;;13.70;56.50;;;;;;5049295;28;19909;-75
2022/04/04 11:14:11;;;;;;;;;;;13.80;54.90;;;;;;5050393;28;20431;-75
2022/04/04 11:16:55;;;;;;;;;;;15.10;50.70;;;;;;5050465;28;19909;-75
2022/04/04 11:19:21;;;;;;;;;;;16.00;50.50;;;;;;5037790;28;19924;-76
2022/04/04 11:21:49;;;;;;;;;;;13.20;53.80;;;;;;5045275;28;19917;-75
2022/04/04 11:24:15;;;;;;;;;;;12.70;52.80;;;;;;5054466;28;19913;-75
2022/04/04 11:26:41;;;;;;;;;;;11.60;57.80;;;;;;5050394;28;19913;-74
2022/04/04 11:29:09;;;;;;;;;;;13.20;57.10;;;;;;5050598;28;20452;-75
2022/04/04 11:31:45;;;;;;;;;;;15.30;52.50;;;;;;5049832;28;19944;-75
2022/04/04 11:34:12;;;;;;;;;;;12.20;56.70;;;;;;5046991;28;20125;-75
2022/04/04 11:36:39;;;;;;;;;;;14.40;53.80;;;;;;5053617;28;20016;-74
2022/04/04 11:39:08;;;;;;;;;;;11.10;57.00;;;;;;5052020;28;19909;-74
2022/04/04 11:41:37;;;;;;;;;;;13.10;56.10;;;;;;5056569;28;19913;-74
2022/04/04 11:44:03;;;;;;;;;;;14.00;55.00;;;;;;5049899;28;19994;-75
2022/04/04 11:46:28;;;;;;;;;;;13.90;55.70;;;;;;5051658;28;19919;-75
2022/04/04 11:48:54;;;;;;;;;;;13.60;52.60;;;;;;5054079;28;20262;-75
2022/04/04 11:51:26;;;;;;;;;;;13.20;55.00;;;;;;5054098;28;19919;-75
2022/04/04 11:54:07;;;;;;;;;;;14.60;55.40;;;;;;5054174;28;19946;-74
2022/04/04 11:56:33;;;;;;;;;;;13.40;54.10;;;;;;5048156;28;20435;-74
2022/04/04 11:58:59;;;;;;;;;;;13.20;56.60;;;;;;5052468;28;19909;-74
2022/04/04 12:01:31;;;;;;;;;;;13.00;56.70;;;;;;5054324;28;19912;-74
2022/04/04 12:03:57;;;;;;;;;;;12.80;55.90;;;;;;5057011;28;19908;-74
2022/04/04 12:06:23;;;;;;;;;;;14.10;55.90;;;;;;5053741;28;19962;-74
2022/04/04 12:08:48;;;;;;;;;;;12.70;55.00;;;;;;5053746;28;19909;-74
2022/04/04 12:11:25;;;;;;;;;;;12.30;56.60;;;;;;5053279;28;19970;-74
2022/04/04 12:13:56;;;;;;;;;;;9.20;64.80;;;;;;5053394;28;20454;-74
2022/04/04 12:16:23;;;;;;;;;;;7.50;70.10;;;;;;5053555;28;19999;-74
2022/04/04 12:18:59;;;;;;;;;;;7.30;71.30;;;;;;5053434;28;20396;-74
2022/04/04 12:21:25;;;;;;;;;;;7.40;72.90;;;;;;5041918;28;19981;-73
2022/04/04 12:26:35;;;;;;;;;;;7.00;71.70;;;;;;5049666;28;19961;-73
2022/04/04 12:29:03;;;;;;;;;;;6.70;74.30;;;;;;5053702;28;19912;-74
2022/04/04 12:31:28;;;;;;;;;;;6.50;74.30;;;;;;5053701;28;19913;-74
2022/04/04 12:34:00;;;;;;;;;;;6.30;74.80;;;;;;5053606;28;19909;-74
2022/04/04 12:36:28;;;;;;;;;;;6.60;75.30;;;;;;5053551;28;19957;-73
2022/04/04 12:38:56;;;;;;;;;;;6.50;76.30;;;;;;5049738;28;19917;-73
2022/04/04 12:41:22;;;;;;;;;;;6.60;75.10;;;;;;5049721;28;20385;-74
2022/04/04 12:43:58;;;;;;;;;;;6.80;76.10;;;;;;5063578;28;19913;-74
2022/04/04 12:46:33;;;;;;;;;;;6.90;75.60;;;;;;5052973;28;19962;-74
2022/04/04 12:49:11;;;;;;;;;;;7.10;76.60;;;;;;5053001;28;19923;-74
2022/04/04 12:51:36;;;;;;;;;;;6.90;72.70;;;;;;5052806;28;19947;-74
2022/04/04 12:54:02;;;;;;;;;;;6.60;73.70;;;;;;5052999;28;20006;-74
2022/04/04 12:56:45;;;;;;;;;;;6.60;73.30;;;;;;5053055;28;19932;-73
2022/04/04 12:59:11;;;;;;;;;;;6.30;74.10;;;;;;5054358;28;19943;-73
2022/04/04 13:01:37;;;;;;;;;;;6.30;75.50;;;;;;5055648;28;20050;-74
2022/04/04 13:04:19;;;;;;;;;;;6.40;76.30;;;;;;5053071;28;20388;-74
2022/04/04 13:06:45;;;;;;;;;;;6.20;74.60;;;;;;5052712;28;19908;-73
2022/04/04 13:09:10;;;;;;;;;;;6.30;75.50;;;;;;5052293;28;19916;-73
2022/04/04 13:11:48;;;;;;;;;;;6.50;75.30;;;;;;5048165;28;20284;-73
2022/04/04 13:14:14;;;;;;;;;;;6.70;74.20;;;;;;5054041;28;19992;-73
2022/04/04 13:16:41;;;;;;;;;;;6.90;74.60;;;;;;5052474;28;19986;-73
2022/04/04 13:19:08;;;;;;;;;;;6.70;74.70;;;;;;5052739;28;19939;-73
2022/04/04 13:21:35;;;;;;;;;;;6.70;75.80;;;;;;5052616;28;19960;-73
2022/04/04 13:24:01;;;;;;;;;;;6.70;75.00;;;;;;5054942;28;19909;-73
2022/04/04 13:26:26;;;;;;;;;;;6.50;76.10;;;;;;5052801;28;19920;-73
2022/04/04 13:28:52;;;;;;;;;;;6.30;75.10;;;;;;5052828;28;19909;-73
2022/04/04 13:31:19;;;;;;;;;;;6.40;76.40;;;;;;5052825;28;19956;-73
2022/04/04 13:33:45;;;;;;;;;;;6.30;75.30;;;;;;5052835;28;20334;-73
2022/04/04 13:36:11;;;;;;;;;;;6.50;75.60;;;;;;5052815;28;20007;-73
2022/04/04 13:38:36;;;;;;;;;;;6.70;76.40;;;;;;5051918;28;19909;-73
2022/04/04 13:41:02;;;;;;;;;;;6.60;74.70;;;;;;5050496;28;20669;-73
2022/04/04 13:43:27;;;;;;;;;;;6.80;76.60;;;;;;5051679;28;19909;-73
2022/04/04 13:45:53;;;;;;;;;;;6.80;74.40;;;;;;5051906;28;19959;-73
2022/04/04 13:48:19;;;;;;;;;;;6.70;77.20;;;;;;5051797;28;19962;-73
2022/04/04 13:50:45;;;;;;;;;;;7.00;74.10;;;;;;5051746;28;19909;-73
2022/04/04 13:53:10;;;;;;;;;;;7.10;73.80;;;;;;5051337;28;19917;-73
2022/04/04 13:55:37;;;;;;;;;;;7.00;73.80;;;;;;5061044;28;19917;-73
2022/04/04 13:58:03;;;;;;;;;;;7.30;74.40;;;;;;5051338;28;19954;-73
2022/04/04 14:00:28;;;;;;;;;;;7.40;72.60;;;;;;5050085;28;20381;-73
2022/04/04 14:02:54;;;;;;;;;;;7.70;74.00;;;;;;5051362;28;19944;-73
2022/04/04 14:05:19;;;;;;;;;;;7.60;71.40;;;;;;5058005;28;20250;-73
2022/04/04 14:07:45;;;;;;;;;;;8.10;72.50;;;;;;5051404;28;19915;-73
2022/04/04 14:10:12;;;;;;;;;;;8.50;72.20;;;;;;5051310;28;19917;-74
2022/04/04 14:12:38;;;;;;;;;;;8.00;69.50;;;;;;5051502;28;20281;-74
2022/04/04 14:15:04;;;;;;;;;;;7.80;71.50;;;;;;5051322;28;19909;-74
2022/04/04 14:17:30;;;;;;;;;;;8.00;70.60;;;;;;5051426;28;19917;-72
2022/04/04 14:19:56;;;;;;;;;;;7.70;70.50;;;;;;5051274;28;19909;-72
2022/04/04 14:22:23;;;;;;;;;;;8.00;72.70;;;;;;5043220;28;19913;-72
2022/04/04 14:24:50;;;;;;;;;;;7.70;71.20;;;;;;5048626;28;19909;-72
2022/04/04 14:27:16;;;;;;;;;;;8.20;71.80;;;;;;5050851;28;20406;-72